MDSD/SDQ METAR and TAF weather

Enter ICAO airport designator
Station Type Date Time Source
MDSD METAR 2020/09/27 15:00 UTC NOAA

MDSD 271500Z 00000KT 9999 FEW019CB SCT020 30/24 Q1013 CB/SW


Station Type Date Time Source
MDSD Decoded METAR 2020/09/27 15:00 UTC NOAA

Las Americas, Dominican Republic (MDSD) 18-26N 069-40W
Sep 27, 2020 - 11:00 AM EDT / 2020.09.27 1500 UTC
Wind: Calm:0
Visibility: greater than 7 mile(s):0
Sky conditions: partly cloudy
Weather: Cumulonimbus clouds observed
Temperature: 86 F (30 C)
Heat index: 95.0 F (35.0 C):1
Dew Point: 75 F (24 C)
Relative Humidity: 70%
Pressure (altimeter): 29.91 in. Hg (1013 hPa)
ob: MDSD 271500Z 00000KT 9999 FEW019CB SCT020 30/24 Q1013 CB/SW
cycle: 15

Station Type Date Time Source
MDSD TAF 2020/09/27 12:09 UTC NOAA

TAF MDSD 271000Z 2712/2812 07006KT 9999 FEW016CB FEW018 PROB30 2718/2800 8000 -TSRA FEW014CB SCT015 SCT300
BECMG 2718/2720 16012KT

Example: see airport list